sensor_id;sensor_type;location;lat;lon;timestamp;pressure;altitude;pressure_sealevel;temperature;humidity
36964;BME280;22878;48.616;35.326;2023-01-30T00:01:45;101025.33;;;-1.69;100.00
36964;BME280;22878;48.616;35.326;2023-01-30T00:04:12;101023.58;;;-1.70;100.00
36964;BME280;22878;48.616;35.326;2023-01-30T00:06:38;101019.77;;;-1.76;100.00
36964;BME280;22878;48.616;35.326;2023-01-30T00:09:04;101015.95;;;-1.76;100.00
36964;BME280;22878;48.616;35.326;2023-01-30T00:11:30;101014.81;;;-1.78;100.00
36964;BME280;22878;48.616;35.326;2023-01-30T00:13:58;101013.24;;;-1.79;100.00
36964;BME280;22878;48.616;35.326;2023-01-30T00:16:26;101010.59;;;-1.79;100.00
36964;BME280;22878;48.616;35.326;2023-01-30T00:18:52;101014.16;;;-1.79;100.00
36964;BME280;22878;48.616;35.326;2023-01-30T00:21:17;101010.83;;;-1.81;100.00
36964;BME280;22878;48.616;35.326;2023-01-30T00:23:43;101009.13;;;-1.78;100.00
36964;BME280;22878;48.616;35.326;2023-01-30T00:26:09;101009.71;;;-1.84;100.00
36964;BME280;22878;48.616;35.326;2023-01-30T00:28:35;101009.05;;;-1.89;100.00
36964;BME280;22878;48.616;35.326;2023-01-30T00:31:01;101004.11;;;-1.92;100.00
36964;BME280;22878;48.616;35.326;2023-01-30T00:33:35;101005.43;;;-1.93;100.00
36964;BME280;22878;48.616;35.326;2023-01-30T00:36:01;101002.61;;;-1.94;100.00
36964;BME280;22878;48.616;35.326;2023-01-30T00:38:29;101005.54;;;-1.95;100.00
36964;BME280;22878;48.616;35.326;2023-01-30T00:40:54;101000.91;;;-1.95;100.00
36964;BME280;22878;48.616;35.326;2023-01-30T00:43:20;101002.90;;;-1.99;100.00
36964;BME280;22878;48.616;35.326;2023-01-30T00:49:37;100996.86;;;-2.06;100.00
36964;BME280;22878;48.616;35.326;2023-01-30T00:52:03;101002.05;;;-2.09;100.00
36964;BME280;22878;48.616;35.326;2023-01-30T00:54:31;100999.83;;;-2.11;100.00
36964;BME280;22878;48.616;35.326;2023-01-30T00:56:57;101002.23;;;-2.12;100.00
36964;BME280;22878;48.616;35.326;2023-01-30T00:59:22;101004.23;;;-2.14;100.00
36964;BME280;22878;48.616;35.326;2023-01-30T01:01:51;101001.97;;;-2.17;100.00
36964;BME280;22878;48.616;35.326;2023-01-30T01:04:16;100997.15;;;-2.17;100.00
36964;BME280;22878;48.616;35.326;2023-01-30T01:06:42;100991.83;;;-2.18;100.00
36964;BME280;22878;48.616;35.326;2023-01-30T01:09:08;100987.22;;;-2.19;100.00
36964;BME280;22878;48.616;35.326;2023-01-30T01:11:33;100987.12;;;-2.18;100.00
36964;BME280;22878;48.616;35.326;2023-01-30T01:14:01;100986.09;;;-2.17;100.00
36964;BME280;22878;48.616;35.326;2023-01-30T01:16:30;100991.88;;;-2.17;100.00
36964;BME280;22878;48.616;35.326;2023-01-30T01:19:01;100991.30;;;-2.15;100.00
36964;BME280;22878;48.616;35.326;2023-01-30T01:21:27;100987.80;;;-2.15;100.00
36964;BME280;22878;48.616;35.326;2023-01-30T01:23:55;100987.91;;;-2.16;100.00
36964;BME280;22878;48.616;35.326;2023-01-30T01:26:22;100994.09;;;-2.18;100.00
36964;BME280;22878;48.616;35.326;2023-01-30T01:28:57;100997.95;;;-2.19;100.00
36964;BME280;22878;48.616;35.326;2023-01-30T01:31:23;100999.33;;;-2.19;100.00
36964;BME280;22878;48.616;35.326;2023-01-30T01:33:51;100994.41;;;-2.19;100.00
36964;BME280;22878;48.616;35.326;2023-01-30T01:36:17;100995.51;;;-2.21;100.00
36964;BME280;22878;48.616;35.326;2023-01-30T01:38:42;100993.22;;;-2.21;100.00
36964;BME280;22878;48.616;35.326;2023-01-30T01:41:10;100998.51;;;-2.21;100.00
36964;BME280;22878;48.616;35.326;2023-01-30T01:43:57;100999.52;;;-2.19;100.00
36964;BME280;22878;48.616;35.326;2023-01-30T01:46:26;100994.94;;;-2.21;100.00
36964;BME280;22878;48.616;35.326;2023-01-30T01:48:55;100996.63;;;-2.20;100.00
36964;BME280;22878;48.616;35.326;2023-01-30T01:51:31;100998.27;;;-2.21;100.00
36964;BME280;22878;48.616;35.326;2023-01-30T01:54:04;100997.26;;;-2.19;100.00
36964;BME280;22878;48.616;35.326;2023-01-30T01:56:34;100997.27;;;-2.18;100.00
36964;BME280;22878;48.616;35.326;2023-01-30T01:59:09;100996.83;;;-2.20;100.00
36964;BME280;22878;48.616;35.326;2023-01-30T02:01:38;100992.54;;;-2.20;100.00
36964;BME280;22878;48.616;35.326;2023-01-30T02:04:07;100988.27;;;-2.19;100.00
36964;BME280;22878;48.616;35.326;2023-01-30T02:06:43;100987.65;;;-2.25;100.00
36964;BME280;22878;48.616;35.326;2023-01-30T02:09:11;100987.12;;;-2.26;100.00
36964;BME280;22878;48.616;35.326;2023-01-30T02:12:14;100983.20;;;-2.26;100.00
36964;BME280;22878;48.616;35.326;2023-01-30T02:14:48;100983.16;;;-2.29;100.00
36964;BME280;22878;48.616;35.326;2023-01-30T02:17:17;100978.42;;;-2.28;100.00
36964;BME280;22878;48.616;35.326;2023-01-30T02:19:56;100980.30;;;-2.34;100.00
36964;BME280;22878;48.616;35.326;2023-01-30T02:34:03;100971.23;;;-2.33;100.00
36964;BME280;22878;48.616;35.326;2023-01-30T02:39:52;100962.42;;;-2.31;100.00
36964;BME280;22878;48.616;35.326;2023-01-30T02:45:46;100965.08;;;-2.24;100.00
36964;BME280;22878;48.616;35.326;2023-01-30T02:51:29;100969.31;;;-2.23;100.00
36964;BME280;22878;48.616;35.326;2023-01-30T02:54:08;100978.95;;;-2.22;100.00
36964;BME280;22878;48.616;35.326;2023-01-30T02:56:51;100978.84;;;-2.23;100.00
36964;BME280;22878;48.616;35.326;2023-01-30T02:59:58;100980.92;;;-2.23;100.00
36964;BME280;22878;48.616;35.326;2023-01-30T03:02:37;100982.83;;;-2.24;100.00
36964;BME280;22878;48.616;35.326;2023-01-30T03:08:29;100980.16;;;-2.21;100.00
36964;BME280;22878;48.616;35.326;2023-01-30T03:11:04;100981.75;;;-2.17;100.00
36964;BME280;22878;48.616;35.326;2023-01-30T03:17:02;100978.94;;;-2.21;100.00
36964;BME280;22878;48.616;35.326;2023-01-30T03:19:31;100975.61;;;-2.19;100.00
36964;BME280;22878;48.616;35.326;2023-01-30T03:22:05;100973.70;;;-2.16;100.00
36964;BME280;22878;48.616;35.326;2023-01-30T03:28:22;100976.62;;;-2.09;100.00
36964;BME280;22878;48.616;35.326;2023-01-30T08:07:08;100947.27;;;20.23;29.01
36964;BME280;22878;48.616;35.326;2023-01-30T08:09:34;100945.44;;;19.63;29.58
36964;BME280;22878;48.616;35.326;2023-01-30T08:12:00;100946.14;;;18.60;29.74
36964;BME280;22878;48.616;35.326;2023-01-30T08:14:25;100943.61;;;18.32;30.05
36964;BME280;22878;48.616;35.326;2023-01-30T08:16:54;100933.44;;;18.35;30.58
36964;BME280;22878;48.616;35.326;2023-01-30T08:19:20;100928.26;;;18.46;29.93
36964;BME280;22878;48.616;35.326;2023-01-30T08:21:45;100928.18;;;18.88;30.05
36964;BME280;22878;48.616;35.326;2023-01-30T08:27:40;100920.95;;;19.87;28.24
36964;BME280;22878;48.616;35.326;2023-01-30T08:30:06;100916.10;;;20.10;28.22
36964;BME280;22878;48.616;35.326;2023-01-30T08:32:32;100918.24;;;20.60;28.79
36964;BME280;22878;48.616;35.326;2023-01-30T08:34:58;100919.05;;;20.32;27.04
36964;BME280;22878;48.616;35.326;2023-01-30T08:37:24;100913.06;;;20.35;27.81
36964;BME280;22878;48.616;35.326;2023-01-30T08:39:49;100916.03;;;18.99;26.88
36964;BME280;22878;48.616;35.326;2023-01-30T08:42:15;100916.60;;;17.72;27.52
36964;BME280;22878;48.616;35.326;2023-01-30T08:48:11;100911.88;;;12.67;30.58
36964;BME280;22878;48.616;35.326;2023-01-30T08:50:36;100916.13;;;10.45;32.49
36964;BME280;22878;48.616;35.326;2023-01-30T08:56:24;100913.71;;;7.84;36.32
36964;BME280;22878;48.616;35.326;2023-01-30T08:58:50;100908.26;;;6.88;36.92
36964;BME280;22878;48.616;35.326;2023-01-30T09:01:15;100908.02;;;5.75;38.32
36964;BME280;22878;48.616;35.326;2023-01-30T09:03:41;100905.31;;;4.64;40.97
36964;BME280;22878;48.616;35.326;2023-01-30T09:06:07;100900.54;;;4.13;42.37
36964;BME280;22878;48.616;35.326;2023-01-30T09:08:33;100897.09;;;3.70;42.94
36964;BME280;22878;48.616;35.326;2023-01-30T09:14:21;100884.06;;;2.69;46.10
36964;BME280;22878;48.616;35.326;2023-01-30T09:16:48;100885.73;;;2.53;45.99
36964;BME280;22878;48.616;35.326;2023-01-30T09:19:24;100878.05;;;2.13;46.92
36964;BME280;22878;48.616;35.326;2023-01-30T09:28:34;100859.88;;;1.43;50.14
36964;BME280;22878;48.616;35.326;2023-01-30T09:31:02;100856.56;;;1.43;49.67
36964;BME280;22878;48.616;35.326;2023-01-30T09:33:28;100855.42;;;1.32;50.33
36964;BME280;22878;48.616;35.326;2023-01-30T09:35:54;100854.37;;;1.18;50.36
36964;BME280;22878;48.616;35.326;2023-01-30T09:38:20;100849.20;;;1.10;50.52
36964;BME280;22878;48.616;35.326;2023-01-30T09:54:44;100816.55;;;0.92;52.60
36964;BME280;22878;48.616;35.326;2023-01-30T10:05:07;100802.88;;;0.74;53.98
36964;BME280;22878;48.616;35.326;2023-01-30T10:17:22;100790.50;;;0.55;55.55
36964;BME280;22878;48.616;35.326;2023-01-30T10:22:53;100778.13;;;0.62;56.63
36964;BME280;22878;48.616;35.326;2023-01-30T10:25:32;100768.47;;;0.69;56.35
36964;BME280;22878;48.616;35.326;2023-01-30T10:28:05;100766.31;;;0.79;56.65
36964;BME280;22878;48.616;35.326;2023-01-30T10:30:34;100766.59;;;0.81;56.47
36964;BME280;22878;48.616;35.326;2023-01-30T10:33:23;100764.73;;;0.80;56.78
36964;BME280;22878;48.616;35.326;2023-01-30T10:36:06;100756.34;;;0.81;56.76
36964;BME280;22878;48.616;35.326;2023-01-30T10:38:50;100755.11;;;0.85;56.63
36964;BME280;22878;48.616;35.326;2023-01-30T10:41:27;100749.20;;;0.87;56.10
36964;BME280;22878;48.616;35.326;2023-01-30T10:47:27;100728.55;;;1.03;56.96
36964;BME280;22878;48.616;35.326;2023-01-30T10:50:06;100725.19;;;1.08;57.14
36964;BME280;22878;48.616;35.326;2023-01-30T10:55:28;100723.82;;;1.16;57.76
36964;BME280;22878;48.616;35.326;2023-01-30T11:01:00;100716.87;;;1.15;58.65
36964;BME280;22878;48.616;35.326;2023-01-30T11:06:52;100708.17;;;1.11;58.42
36964;BME280;22878;48.616;35.326;2023-01-30T11:09:19;100706.41;;;1.15;58.74
36964;BME280;22878;48.616;35.326;2023-01-30T11:11:49;100706.95;;;1.15;59.08
36964;BME280;22878;48.616;35.326;2023-01-30T11:14:16;100704.95;;;1.10;59.31
36964;BME280;22878;48.616;35.326;2023-01-30T11:16:50;100698.73;;;1.02;59.62
36964;BME280;22878;48.616;35.326;2023-01-30T11:19:21;100698.48;;;1.02;60.01
36964;BME280;22878;48.616;35.326;2023-01-30T11:21:52;100696.15;;;1.07;59.61
36964;BME280;22878;48.616;35.326;2023-01-30T11:24:45;100690.45;;;1.07;59.93
36964;BME280;22878;48.616;35.326;2023-01-30T11:29:41;100682.83;;;1.09;59.66
36964;BME280;22878;48.616;35.326;2023-01-30T11:32:27;100678.57;;;1.07;60.03
36964;BME280;22878;48.616;35.326;2023-01-30T11:41:41;100662.73;;;0.97;60.64
36964;BME280;22878;48.616;35.326;2023-01-30T11:47:29;100660.01;;;0.95;61.13
36964;BME280;22878;48.616;35.326;2023-01-30T11:49:57;100658.34;;;0.98;61.37
36964;BME280;22878;48.616;35.326;2023-01-30T11:52:32;100654.21;;;0.96;61.94
36964;BME280;22878;48.616;35.326;2023-01-30T11:55:09;100650.23;;;0.92;61.11
36964;BME280;22878;48.616;35.326;2023-01-30T11:57:43;100649.20;;;0.85;61.70
36964;BME280;22878;48.616;35.326;2023-01-30T12:03:32;100646.77;;;0.86;62.79
36964;BME280;22878;48.616;35.326;2023-01-30T12:09:35;100643.69;;;0.90;63.38
36964;BME280;22878;48.616;35.326;2023-01-30T12:15:32;100639.90;;;0.86;63.00
36964;BME280;22878;48.616;35.326;2023-01-30T12:21:07;100639.83;;;0.80;63.50
36964;BME280;22878;48.616;35.326;2023-01-30T12:24:01;100635.64;;;0.76;63.73
36964;BME280;22878;48.616;35.326;2023-01-30T12:26:36;100633.86;;;0.78;64.67
36964;BME280;22878;48.616;35.326;2023-01-30T12:34:39;100624.87;;;0.83;65.31
36964;BME280;22878;48.616;35.326;2023-01-30T12:45:25;100616.86;;;0.74;67.22
36964;BME280;22878;48.616;35.326;2023-01-30T12:53:43;100611.53;;;0.73;67.78
36964;BME280;22878;48.616;35.326;2023-01-30T13:04:58;100606.63;;;0.64;69.38
36964;BME280;22878;48.616;35.326;2023-01-30T13:07:49;100606.02;;;0.64;70.14
36964;BME280;22878;48.616;35.326;2023-01-30T13:10:30;100599.45;;;0.63;70.20
36964;BME280;22878;48.616;35.326;2023-01-30T13:16:17;100595.60;;;0.56;70.62
36964;BME280;22878;48.616;35.326;2023-01-30T13:18:58;100592.41;;;0.52;71.00
36964;BME280;22878;48.616;35.326;2023-01-30T13:21:30;100585.40;;;0.49;70.64
36964;BME280;22878;48.616;35.326;2023-01-30T17:07:33;100557.48;;;-6.52;100.00
36964;BME280;22878;48.616;35.326;2023-01-30T17:09:59;100556.32;;;-6.33;100.00
36964;BME280;22878;48.616;35.326;2023-01-30T17:12:41;100557.41;;;-6.28;100.00
36964;BME280;22878;48.616;35.326;2023-01-30T17:17:36;100558.89;;;-6.24;100.00
36964;BME280;22878;48.616;35.326;2023-01-30T17:23:22;100554.96;;;-6.18;100.00
36964;BME280;22878;48.616;35.326;2023-01-30T17:25:48;100555.21;;;-6.19;100.00
36964;BME280;22878;48.616;35.326;2023-01-30T17:28:21;100549.11;;;-6.17;100.00
36964;BME280;22878;48.616;35.326;2023-01-30T17:30:48;100544.98;;;-6.16;100.00
36964;BME280;22878;48.616;35.326;2023-01-30T17:33:14;100540.61;;;-6.12;100.00
36964;BME280;22878;48.616;35.326;2023-01-30T17:35:40;100537.76;;;-6.08;100.00
36964;BME280;22878;48.616;35.326;2023-01-30T17:38:05;100532.59;;;-6.03;100.00
36964;BME280;22878;48.616;35.326;2023-01-30T17:40:34;100533.53;;;-5.99;100.00
36964;BME280;22878;48.616;35.326;2023-01-30T17:43:00;100534.16;;;-5.97;100.00
36964;BME280;22878;48.616;35.326;2023-01-30T17:45:26;100534.12;;;-5.95;100.00
36964;BME280;22878;48.616;35.326;2023-01-30T17:47:52;100534.48;;;-5.89;100.00
36964;BME280;22878;48.616;35.326;2023-01-30T17:50:18;100535.54;;;-5.86;100.00
36964;BME280;22878;48.616;35.326;2023-01-30T17:52:46;100534.11;;;-5.86;100.00
36964;BME280;22878;48.616;35.326;2023-01-30T17:55:12;100531.50;;;-5.86;100.00
36964;BME280;22878;48.616;35.326;2023-01-30T17:57:41;100530.34;;;-5.85;100.00
36964;BME280;22878;48.616;35.326;2023-01-30T18:00:14;100532.68;;;-5.84;100.00
36964;BME280;22878;48.616;35.326;2023-01-30T18:02:40;100530.05;;;-5.84;100.00
36964;BME280;22878;48.616;35.326;2023-01-30T18:05:05;100525.57;;;-5.83;100.00
36964;BME280;22878;48.616;35.326;2023-01-30T18:07:31;100523.49;;;-5.84;100.00
36964;BME280;22878;48.616;35.326;2023-01-30T18:09:57;100524.38;;;-5.85;100.00
36964;BME280;22878;48.616;35.326;2023-01-30T18:12:25;100523.02;;;-5.85;100.00
36964;BME280;22878;48.616;35.326;2023-01-30T18:14:53;100525.30;;;-5.85;100.00
36964;BME280;22878;48.616;35.326;2023-01-30T18:17:18;100525.88;;;-5.84;100.00
36964;BME280;22878;48.616;35.326;2023-01-30T18:19:47;100525.16;;;-5.84;100.00
36964;BME280;22878;48.616;35.326;2023-01-30T18:22:15;100526.33;;;-5.83;100.00
36964;BME280;22878;48.616;35.326;2023-01-30T18:24:40;100523.02;;;-5.83;100.00
36964;BME280;22878;48.616;35.326;2023-01-30T18:27:06;100519.95;;;-5.84;100.00
36964;BME280;22878;48.616;35.326;2023-01-30T18:29:32;100513.06;;;-5.89;100.00
36964;BME280;22878;48.616;35.326;2023-01-30T18:31:57;100516.29;;;-5.88;100.00
36964;BME280;22878;48.616;35.326;2023-01-30T18:34:29;100512.69;;;-5.87;100.00
36964;BME280;22878;48.616;35.326;2023-01-30T18:36:54;100507.10;;;-5.87;100.00
36964;BME280;22878;48.616;35.326;2023-01-30T18:39:20;100504.87;;;-5.89;100.00
36964;BME280;22878;48.616;35.326;2023-01-30T18:41:46;100505.55;;;-5.92;100.00
36964;BME280;22878;48.616;35.326;2023-01-30T18:44:11;100498.55;;;-5.92;100.00
36964;BME280;22878;48.616;35.326;2023-01-30T18:46:37;100496.90;;;-5.90;100.00
36964;BME280;22878;48.616;35.326;2023-01-30T18:49:03;100497.00;;;-5.84;100.00
36964;BME280;22878;48.616;35.326;2023-01-30T18:51:34;100491.39;;;-5.75;100.00
36964;BME280;22878;48.616;35.326;2023-01-30T18:54:09;100492.77;;;-5.63;100.00
36964;BME280;22878;48.616;35.326;2023-01-30T18:56:35;100486.76;;;-5.49;100.00
36964;BME280;22878;48.616;35.326;2023-01-30T18:59:02;100484.87;;;-5.29;100.00
36964;BME280;22878;48.616;35.326;2023-01-30T19:01:41;100489.13;;;-5.11;100.00
36964;BME280;22878;48.616;35.326;2023-01-30T19:04:12;100479.16;;;-4.96;100.00
36964;BME280;22878;48.616;35.326;2023-01-30T19:06:40;100471.61;;;-4.81;100.00
36964;BME280;22878;48.616;35.326;2023-01-30T19:09:15;100470.89;;;-4.63;100.00
36964;BME280;22878;48.616;35.326;2023-01-30T19:11:46;100469.24;;;-4.49;100.00
36964;BME280;22878;48.616;35.326;2023-01-30T19:14:32;100464.20;;;-4.30;100.00
36964;BME280;22878;48.616;35.326;2023-01-30T19:17:22;100461.95;;;-4.14;100.00
36964;BME280;22878;48.616;35.326;2023-01-30T19:19:48;100461.46;;;-4.00;100.00
36964;BME280;22878;48.616;35.326;2023-01-30T19:22:27;100458.81;;;-3.85;100.00
36964;BME280;22878;48.616;35.326;2023-01-30T19:24:52;100457.62;;;-3.71;100.00
36964;BME280;22878;48.616;35.326;2023-01-30T19:27:24;100456.70;;;-3.59;100.00
36964;BME280;22878;48.616;35.326;2023-01-30T19:29:50;100452.69;;;-3.49;100.00
36964;BME280;22878;48.616;35.326;2023-01-30T19:32:16;100455.88;;;-3.40;100.00
36964;BME280;22878;48.616;35.326;2023-01-30T19:34:41;100452.91;;;-3.31;100.00
36964;BME280;22878;48.616;35.326;2023-01-30T19:37:13;100451.80;;;-3.21;100.00
36964;BME280;22878;48.616;35.326;2023-01-30T19:39:42;100457.38;;;-3.11;100.00
36964;BME280;22878;48.616;35.326;2023-01-30T19:42:07;100463.48;;;-3.02;100.00
36964;BME280;22878;48.616;35.326;2023-01-30T19:44:36;100464.91;;;-2.94;100.00
36964;BME280;22878;48.616;35.326;2023-01-30T19:47:07;100463.69;;;-2.86;100.00
36964;BME280;22878;48.616;35.326;2023-01-30T19:49:33;100462.89;;;-2.78;100.00
36964;BME280;22878;48.616;35.326;2023-01-30T19:52:02;100461.67;;;-2.69;100.00
36964;BME280;22878;48.616;35.326;2023-01-30T19:54:27;100461.48;;;-2.61;100.00
36964;BME280;22878;48.616;35.326;2023-01-30T19:56:53;100459.80;;;-2.54;100.00
36964;BME280;22878;48.616;35.326;2023-01-30T19:59:18;100458.66;;;-2.47;100.00
36964;BME280;22878;48.616;35.326;2023-01-30T20:01:44;100462.00;;;-2.40;100.00
36964;BME280;22878;48.616;35.326;2023-01-30T20:04:10;100458.80;;;-2.34;100.00
36964;BME280;22878;48.616;35.326;2023-01-30T20:06:36;100456.52;;;-2.27;100.00
36964;BME280;22878;48.616;35.326;2023-01-30T20:09:07;100456.23;;;-2.22;100.00
36964;BME280;22878;48.616;35.326;2023-01-30T20:11:38;100455.41;;;-2.16;100.00
36964;BME280;22878;48.616;35.326;2023-01-30T20:14:04;100452.58;;;-2.10;100.00
36964;BME280;22878;48.616;35.326;2023-01-30T20:16:32;100451.36;;;-2.04;100.00
36964;BME280;22878;48.616;35.326;2023-01-30T20:19:01;100453.34;;;-2.00;100.00
36964;BME280;22878;48.616;35.326;2023-01-30T20:21:30;100455.85;;;-1.95;100.00
36964;BME280;22878;48.616;35.326;2023-01-30T20:23:57;100449.70;;;-1.90;100.00
36964;BME280;22878;48.616;35.326;2023-01-30T20:26:27;100451.19;;;-1.85;100.00
36964;BME280;22878;48.616;35.326;2023-01-30T20:28:53;100455.90;;;-1.80;100.00
36964;BME280;22878;48.616;35.326;2023-01-30T20:31:21;100458.92;;;-1.74;100.00
36964;BME280;22878;48.616;35.326;2023-01-30T20:33:47;100459.48;;;-1.70;100.00
36964;BME280;22878;48.616;35.326;2023-01-30T20:36:15;100458.27;;;-1.67;100.00
36964;BME280;22878;48.616;35.326;2023-01-30T20:38:43;100450.96;;;-1.67;100.00
36964;BME280;22878;48.616;35.326;2023-01-30T20:41:12;100455.13;;;-1.62;100.00
36964;BME280;22878;48.616;35.326;2023-01-30T20:43:41;100457.52;;;-1.58;100.00
36964;BME280;22878;48.616;35.326;2023-01-30T20:46:17;100457.60;;;-1.55;100.00
36964;BME280;22878;48.616;35.326;2023-01-30T20:48:44;100453.55;;;-1.53;100.00
36964;BME280;22878;48.616;35.326;2023-01-30T20:51:12;100448.11;;;-1.50;100.00
36964;BME280;22878;48.616;35.326;2023-01-30T20:53:39;100448.46;;;-1.47;100.00
36964;BME280;22878;48.616;35.326;2023-01-30T20:56:05;100447.93;;;-1.46;100.00
36964;BME280;22878;48.616;35.326;2023-01-30T20:58:31;100442.54;;;-1.44;100.00
36964;BME280;22878;48.616;35.326;2023-01-30T21:01:11;100444.95;;;-1.40;100.00
36964;BME280;22878;48.616;35.326;2023-01-30T21:03:40;100444.42;;;-1.37;100.00
36964;BME280;22878;48.616;35.326;2023-01-30T21:06:06;100438.94;;;-1.36;100.00
36964;BME280;22878;48.616;35.326;2023-01-30T21:08:33;100434.13;;;-1.33;100.00
36964;BME280;22878;48.616;35.326;2023-01-30T21:11:13;100431.99;;;-1.32;100.00
36964;BME280;22878;48.616;35.326;2023-01-30T21:13:39;100433.84;;;-1.30;100.00
36964;BME280;22878;48.616;35.326;2023-01-30T21:18:32;100431.32;;;-1.26;100.00
36964;BME280;22878;48.616;35.326;2023-01-30T21:20:58;100434.27;;;-1.25;100.00
36964;BME280;22878;48.616;35.326;2023-01-30T21:23:24;100437.27;;;-1.22;100.00
36964;BME280;22878;48.616;35.326;2023-01-30T21:25:49;100438.80;;;-1.20;100.00
36964;BME280;22878;48.616;35.326;2023-01-30T21:28:17;100439.48;;;-1.17;100.00
36964;BME280;22878;48.616;35.326;2023-01-30T21:30:43;100441.03;;;-1.17;100.00
36964;BME280;22878;48.616;35.326;2023-01-30T21:33:09;100436.95;;;-1.18;100.00
36964;BME280;22878;48.616;35.326;2023-01-30T21:35:34;100436.78;;;-1.18;100.00
36964;BME280;22878;48.616;35.326;2023-01-30T21:38:02;100436.30;;;-1.17;100.00
36964;BME280;22878;48.616;35.326;2023-01-30T21:40:54;100436.75;;;-1.16;100.00
36964;BME280;22878;48.616;35.326;2023-01-30T21:43:38;100439.24;;;-1.15;100.00
36964;BME280;22878;48.616;35.326;2023-01-30T21:46:04;100436.91;;;-1.13;100.00
36964;BME280;22878;48.616;35.326;2023-01-30T21:48:30;100435.77;;;-1.14;100.00
36964;BME280;22878;48.616;35.326;2023-01-30T21:51:07;100435.98;;;-1.12;100.00
36964;BME280;22878;48.616;35.326;2023-01-30T21:53:32;100436.30;;;-1.11;100.00
36964;BME280;22878;48.616;35.326;2023-01-30T21:55:58;100430.50;;;-1.08;100.00
36964;BME280;22878;48.616;35.326;2023-01-30T21:58:24;100427.66;;;-1.07;100.00
36964;BME280;22878;48.616;35.326;2023-01-30T22:00:49;100425.16;;;-1.06;100.00
36964;BME280;22878;48.616;35.326;2023-01-30T22:03:24;100422.80;;;-1.06;100.00
36964;BME280;22878;48.616;35.326;2023-01-30T22:05:50;100418.80;;;-1.03;100.00
36964;BME280;22878;48.616;35.326;2023-01-30T22:08:16;100419.09;;;-1.01;100.00
36964;BME280;22878;48.616;35.326;2023-01-30T22:10:44;100415.86;;;-1.00;100.00
